Time;durP1;ratioP1;P1;durP2;ratioP2;P2;SDS_P1;SDS_P2;PMS_P1;PMS_P2;Temp;Humidity;BMP_temperature;BMP_pressure;BME280_temperature;BME280_humidity;BME280_pressure;Samples;Min_cycle;Max_cycle;Signal;HPM_P1;HPM_P2
2022/10/17 00:00:30;;;;;;;9.63;4.80;;;;;;;;;;5026187;28;20048;-80
2022/10/17 00:02:56;;;;;;;8.15;4.57;;;;;;;;;;5026667;28;20068;-79
2022/10/17 00:05:23;;;;;;;8.45;4.95;;;;;;;;;;5027182;28;20045;-79
2022/10/17 00:07:50;;;;;;;11.60;4.93;;;;;;;;;;5029165;28;20120;-79
2022/10/17 00:10:16;;;;;;;11.50;5.13;;;;;;;;;;5026291;28;20453;-80
2022/10/17 00:12:42;;;;;;;8.65;4.63;;;;;;;;;;5027789;28;20103;-80
2022/10/17 00:15:08;;;;;;;7.47;4.30;;;;;;;;;;5027065;28;20048;-80
2022/10/17 00:17:34;;;;;;;9.43;5.10;;;;;;;;;;5028306;28;20440;-79
2022/10/17 00:20:01;;;;;;;12.05;4.82;;;;;;;;;;5030054;28;20033;-80
2022/10/17 00:22:27;;;;;;;6.32;4.50;;;;;;;;;;5024344;28;20142;-80
2022/10/17 00:24:53;;;;;;;12.18;4.93;;;;;;;;;;5025752;28;20042;-79
2022/10/17 00:27:19;;;;;;;8.32;4.57;;;;;;;;;;5027797;28;20037;-79
2022/10/17 00:29:49;;;;;;;8.85;4.72;;;;;;;;;;5028439;28;20033;-79
2022/10/17 00:32:18;;;;;;;10.13;5.22;;;;;;;;;;5026073;28;20459;-79
2022/10/17 00:34:44;;;;;;;10.70;4.85;;;;;;;;;;5025724;28;20037;-80
2022/10/17 00:37:10;;;;;;;7.68;4.55;;;;;;;;;;5026682;28;20046;-80
2022/10/17 00:39:36;;;;;;;6.75;4.82;;;;;;;;;;5027644;28;20150;-80
2022/10/17 00:42:02;;;;;;;9.80;4.70;;;;;;;;;;5026552;28;20417;-80
2022/10/17 00:44:31;;;;;;;10.35;4.85;;;;;;;;;;5025739;28;20041;-80
2022/10/17 00:46:58;;;;;;;6.88;4.25;;;;;;;;;;5026672;28;20045;-80
2022/10/17 00:49:25;;;;;;;8.73;4.90;;;;;;;;;;5023994;28;20045;-80
2022/10/17 00:51:53;;;;;;;9.18;4.60;;;;;;;;;;5024545;28;20054;-79
2022/10/17 00:54:22;;;;;;;13.40;5.50;;;;;;;;;;5026716;28;20053;-79
2022/10/17 00:56:49;;;;;;;7.05;4.72;;;;;;;;;;5020474;28;20404;-79
2022/10/17 00:59:16;;;;;;;9.50;4.68;;;;;;;;;;5023597;28;20049;-80
2022/10/17 01:01:45;;;;;;;9.02;5.15;;;;;;;;;;5024648;28;20045;-80
2022/10/17 01:04:11;;;;;;;9.55;5.00;;;;;;;;;;5022803;28;20049;-80
2022/10/17 01:06:37;;;;;;;8.15;5.32;;;;;;;;;;5023286;28;20056;-80
2022/10/17 01:09:03;;;;;;;6.68;4.97;;;;;;;;;;5026193;28;20050;-80
2022/10/17 01:11:29;;;;;;;10.82;5.47;;;;;;;;;;5021719;28;20107;-80
2022/10/17 01:14:03;;;;;;;11.75;6.00;;;;;;;;;;5021590;28;20055;-79
2022/10/17 01:16:32;;;;;;;9.07;5.15;;;;;;;;;;5023674;28;20481;-80
2022/10/17 01:19:05;;;;;;;9.90;5.18;;;;;;;;;;5024868;28;20045;-80
2022/10/17 01:21:34;;;;;;;8.75;5.78;;;;;;;;;;5027625;28;20033;-80
2022/10/17 01:24:12;;;;;;;8.05;5.72;;;;;;;;;;5026916;28;20049;-79
2022/10/17 01:26:48;;;;;;;10.57;5.55;;;;;;;;;;5026933;28;20405;-80
2022/10/17 01:29:32;;;;;;;9.75;5.55;;;;;;;;;;5025192;28;20042;-80
2022/10/17 01:32:00;;;;;;;10.43;5.82;;;;;;;;;;5023982;28;20045;-80
2022/10/17 01:34:30;;;;;;;9.88;6.00;;;;;;;;;;5025637;28;20358;-79
2022/10/17 01:37:03;;;;;;;8.13;6.15;;;;;;;;;;5028241;28;20515;-79
2022/10/17 01:39:42;;;;;;;7.85;5.85;;;;;;;;;;5026490;28;20067;-80
2022/10/17 01:42:14;;;;;;;9.90;5.47;;;;;;;;;;5021400;28;20491;-80
2022/10/17 01:44:55;;;;;;;8.57;5.75;;;;;;;;;;5024045;28;20050;-80
2022/10/17 01:47:24;;;;;;;12.30;5.78;;;;;;;;;;5022540;28;20048;-79
2022/10/17 01:49:53;;;;;;;9.00;5.95;;;;;;;;;;5028446;28;20042;-80
2022/10/17 01:52:27;;;;;;;11.73;6.22;;;;;;;;;;5025873;28;20049;-79
2022/10/17 01:54:55;;;;;;;9.38;6.13;;;;;;;;;;5021434;28;21012;-79
2022/10/17 01:57:33;;;;;;;9.38;6.05;;;;;;;;;;5026016;28;20132;-79
2022/10/17 01:59:59;;;;;;;9.73;6.47;;;;;;;;;;5024004;28;20132;-80
2022/10/17 02:02:26;;;;;;;9.32;6.22;;;;;;;;;;5020108;28;20213;-80
2022/10/17 02:04:53;;;;;;;11.02;6.30;;;;;;;;;;5025872;28;20156;-80
2022/10/17 02:07:19;;;;;;;12.23;6.70;;;;;;;;;;5026039;28;20505;-80
2022/10/17 02:09:45;;;;;;;9.68;6.10;;;;;;;;;;5022339;28;20053;-80
2022/10/17 02:12:27;;;;;;;10.57;6.70;;;;;;;;;;5022867;28;20050;-80
2022/10/17 02:15:02;;;;;;;8.63;6.53;;;;;;;;;;5020564;28;20049;-80
2022/10/17 02:17:34;;;;;;;10.48;6.65;;;;;;;;;;5026306;28;20065;-80
2022/10/17 02:20:06;;;;;;;10.27;6.68;;;;;;;;;;5025073;28;20037;-80
2022/10/17 02:22:47;;;;;;;9.77;7.53;;;;;;;;;;5024879;28;20045;-79
2022/10/17 02:25:13;;;;;;;10.93;7.65;;;;;;;;;;5021662;28;20037;-79
2022/10/17 02:27:39;;;;;;;10.73;7.50;;;;;;;;;;5026518;28;20061;-80
2022/10/17 02:30:12;;;;;;;9.82;8.60;;;;;;;;;;5021958;28;20576;-80
2022/10/17 02:32:43;;;;;;;11.13;7.45;;;;;;;;;;5028702;28;20053;-80
2022/10/17 02:35:11;;;;;;;11.40;7.90;;;;;;;;;;5020091;28;20085;-79
2022/10/17 02:37:37;;;;;;;11.57;8.23;;;;;;;;;;5022997;28;20584;-79
2022/10/17 02:40:04;;;;;;;11.68;8.38;;;;;;;;;;5019902;28;20124;-80
2022/10/17 02:42:31;;;;;;;15.35;8.57;;;;;;;;;;5024049;28;20991;-80
2022/10/17 02:45:00;;;;;;;12.95;8.57;;;;;;;;;;5017592;28;20140;-80
2022/10/17 02:47:34;;;;;;;15.68;8.70;;;;;;;;;;5019099;28;20045;-80
2022/10/17 02:50:00;;;;;;;9.32;8.32;;;;;;;;;;5021761;28;20060;-80
2022/10/17 02:52:26;;;;;;;11.98;8.95;;;;;;;;;;5021039;28;21385;-80
2022/10/17 02:55:00;;;;;;;10.32;8.43;;;;;;;;;;5025639;28;20049;-80
2022/10/17 02:57:37;;;;;;;10.88;9.45;;;;;;;;;;5025329;28;20136;-79
2022/10/17 03:00:06;;;;;;;12.32;10.13;;;;;;;;;;5023540;28;20117;-80
2022/10/17 03:02:44;;;;;;;10.80;9.30;;;;;;;;;;5024369;28;20049;-80
2022/10/17 03:05:11;;;;;;;11.68;9.65;;;;;;;;;;5023768;28;20056;-80
2022/10/17 03:07:37;;;;;;;12.13;9.90;;;;;;;;;;5028219;28;20045;-80
2022/10/17 03:10:03;;;;;;;12.50;10.30;;;;;;;;;;5028644;28;20042;-80
2022/10/17 03:12:29;;;;;;;13.20;10.00;;;;;;;;;;5028051;28;20061;-80
2022/10/17 03:14:55;;;;;;;11.82;10.57;;;;;;;;;;5028580;28;20397;-80
2022/10/17 03:17:21;;;;;;;15.02;11.55;;;;;;;;;;5027191;28;20045;-80
2022/10/17 03:19:47;;;;;;;15.15;11.98;;;;;;;;;;5025952;28;20040;-80
2022/10/17 03:22:13;;;;;;;15.10;12.13;;;;;;;;;;5026764;28;20045;-80
2022/10/17 03:24:39;;;;;;;16.63;14.18;;;;;;;;;;5028963;28;20401;-79
2022/10/17 03:27:05;;;;;;;19.65;14.52;;;;;;;;;;5025420;28;20076;-80
2022/10/17 03:29:31;;;;;;;17.83;15.07;;;;;;;;;;5028953;28;20045;-80
2022/10/17 03:31:57;;;;;;;20.38;16.92;;;;;;;;;;5026143;28;20056;-79
2022/10/17 03:34:23;;;;;;;17.90;15.88;;;;;;;;;;5029849;28;20038;-80
2022/10/17 03:36:50;;;;;;;22.30;17.33;;;;;;;;;;5028615;28;20480;-80
2022/10/17 03:39:16;;;;;;;21.30;18.48;;;;;;;;;;5027671;28;20080;-80
2022/10/17 03:41:42;;;;;;;21.05;18.13;;;;;;;;;;5027159;28;20042;-80
2022/10/17 03:44:08;;;;;;;18.80;16.85;;;;;;;;;;5029098;28;20069;-80
2022/10/17 03:46:34;;;;;;;19.20;17.20;;;;;;;;;;5023290;28;20051;-80
2022/10/17 03:49:02;;;;;;;21.40;17.20;;;;;;;;;;5026582;28;20045;-79
2022/10/17 03:51:28;;;;;;;20.98;16.58;;;;;;;;;;5024436;28;20069;-79
2022/10/17 03:53:54;;;;;;;17.83;15.65;;;;;;;;;;5028203;28;20054;-80
2022/10/17 03:56:24;;;;;;;18.55;16.23;;;;;;;;;;5025844;28;20049;-79
2022/10/17 03:58:50;;;;;;;19.75;16.75;;;;;;;;;;5027224;28;20567;-80
2022/10/17 04:01:17;;;;;;;17.73;15.82;;;;;;;;;;5026482;28;20077;-80
2022/10/17 04:03:43;;;;;;;17.08;15.27;;;;;;;;;;5023830;28;20053;-79
2022/10/17 04:06:11;;;;;;;19.23;16.42;;;;;;;;;;5022716;28;20051;-80
2022/10/17 04:08:41;;;;;;;17.85;16.00;;;;;;;;;;5023034;28;20160;-80
2022/10/17 04:11:08;;;;;;;18.50;16.55;;;;;;;;;;5026774;28;20720;-79
2022/10/17 04:13:34;;;;;;;19.08;17.05;;;;;;;;;;5027342;28;20046;-80
2022/10/17 04:16:01;;;;;;;20.05;16.27;;;;;;;;;;5028350;28;20041;-80
2022/10/17 04:18:27;;;;;;;18.70;15.88;;;;;;;;;;5024163;28;20070;-80
2022/10/17 04:20:53;;;;;;;19.90;16.38;;;;;;;;;;5028297;28;20117;-80
2022/10/17 04:23:19;;;;;;;22.25;17.58;;;;;;;;;;5026842;28;20381;-80
2022/10/17 04:25:46;;;;;;;20.17;17.58;;;;;;;;;;5027768;28;20037;-80
2022/10/17 04:28:12;;;;;;;19.35;16.90;;;;;;;;;;5025831;28;20041;-80
2022/10/17 04:30:39;;;;;;;19.92;17.13;;;;;;;;;;5027064;28;20453;-80
2022/10/17 04:33:05;;;;;;;19.88;17.88;;;;;;;;;;5024340;28;20044;-80
2022/10/17 04:35:31;;;;;;;20.02;17.95;;;;;;;;;;5024924;28;20936;-80
2022/10/17 04:37:57;;;;;;;19.05;17.02;;;;;;;;;;5025379;28;20063;-79
2022/10/17 04:40:23;;;;;;;19.00;17.00;;;;;;;;;;5025099;28;20085;-80
2022/10/17 04:42:49;;;;;;;20.83;17.90;;;;;;;;;;5024871;28;20041;-80
2022/10/17 04:45:15;;;;;;;19.50;17.50;;;;;;;;;;5022594;28;20053;-80
2022/10/17 04:47:41;;;;;;;19.70;17.75;;;;;;;;;;5027006;28;20044;-79
2022/10/17 04:50:07;;;;;;;19.95;17.85;;;;;;;;;;5023405;28;20050;-80
2022/10/17 04:52:36;;;;;;;20.75;18.23;;;;;;;;;;5028215;28;20042;-79
2022/10/17 04:55:03;;;;;;;19.30;17.27;;;;;;;;;;5024963;28;20037;-80
2022/10/17 04:57:29;;;;;;;19.73;17.63;;;;;;;;;;5022628;28;20092;-79
2022/10/17 04:59:55;;;;;;;20.08;17.83;;;;;;;;;;5027690;28;20069;-80
2022/10/17 05:02:21;;;;;;;20.88;18.23;;;;;;;;;;5021638;28;20076;-80
2022/10/17 05:04:47;;;;;;;19.83;17.77;;;;;;;;;;5025905;28;20045;-79
2022/10/17 05:07:13;;;;;;;19.10;17.10;;;;;;;;;;5023738;28;20050;-79
2022/10/17 05:09:39;;;;;;;19.35;17.42;;;;;;;;;;5026236;28;20103;-80
2022/10/17 05:12:05;;;;;;;19.00;17.02;;;;;;;;;;5023283;28;21487;-80
2022/10/17 05:14:31;;;;;;;19.85;17.85;;;;;;;;;;5027456;28;20048;-80
2022/10/17 05:16:57;;;;;;;21.05;17.95;;;;;;;;;;5022933;28;20037;-80
2022/10/17 05:19:23;;;;;;;20.27;17.45;;;;;;;;;;5019822;28;20482;-80
2022/10/17 05:21:49;;;;;;;20.63;17.85;;;;;;;;;;5028388;28;20051;-79
2022/10/17 05:24:15;;;;;;;23.25;17.38;;;;;;;;;;5022648;28;20033;-80
2022/10/17 05:26:41;;;;;;;19.80;16.98;;;;;;;;;;5023579;28;20052;-80
2022/10/17 05:29:07;;;;;;;19.33;16.50;;;;;;;;;;5022804;28;20116;-80
2022/10/17 05:31:33;;;;;;;19.83;17.67;;;;;;;;;;5024814;28;20115;-80
2022/10/17 05:34:00;;;;;;;21.65;18.00;;;;;;;;;;5025885;28;20041;-80
2022/10/17 05:36:29;;;;;;;20.52;17.17;;;;;;;;;;5026435;28;20041;-80
2022/10/17 05:38:55;;;;;;;18.65;16.38;;;;;;;;;;5023308;28;20041;-80
2022/10/17 05:41:27;;;;;;;20.17;16.98;;;;;;;;;;5023539;28;20034;-80
2022/10/17 05:43:53;;;;;;;18.13;15.57;;;;;;;;;;5026676;28;20068;-79
2022/10/17 05:46:19;;;;;;;19.63;16.05;;;;;;;;;;5020848;28;20507;-79
2022/10/17 05:48:45;;;;;;;20.25;15.10;;;;;;;;;;5025460;28;20042;-80
2022/10/17 05:51:11;;;;;;;17.17;15.10;;;;;;;;;;5022302;28;20092;-80
2022/10/17 05:53:38;;;;;;;18.00;15.43;;;;;;;;;;5022396;28;20445;-80
2022/10/17 05:56:06;;;;;;;16.13;14.32;;;;;;;;;;5025721;28;20038;-79
2022/10/17 05:58:36;;;;;;;18.17;14.68;;;;;;;;;;5025984;28;20133;-80
2022/10/17 06:01:03;;;;;;;18.15;14.48;;;;;;;;;;5022680;28;20077;-80
2022/10/17 06:03:29;;;;;;;19.45;14.43;;;;;;;;;;5024442;28;20045;-80
2022/10/17 06:05:55;;;;;;;16.27;14.48;;;;;;;;;;5027303;28;20033;-80
2022/10/17 06:08:24;;;;;;;19.00;14.55;;;;;;;;;;5029749;28;20045;-80
2022/10/17 06:10:51;;;;;;;18.83;14.60;;;;;;;;;;5031171;28;20157;-80
2022/10/17 06:13:17;;;;;;;15.60;13.00;;;;;;;;;;5026011;28;20081;-81
2022/10/17 06:15:44;;;;;;;15.07;13.35;;;;;;;;;;5020534;28;20040;-81
2022/10/17 06:18:10;;;;;;;16.05;14.35;;;;;;;;;;5026566;28;20535;-80
2022/10/17 06:20:36;;;;;;;16.98;13.68;;;;;;;;;;5026112;28;20044;-81
2022/10/17 06:23:03;;;;;;;16.00;14.30;;;;;;;;;;5023752;28;20041;-80
2022/10/17 06:25:32;;;;;;;16.10;14.23;;;;;;;;;;5026098;28;20060;-80
2022/10/17 06:27:58;;;;;;;16.55;14.00;;;;;;;;;;5022982;28;20041;-80
2022/10/17 06:30:24;;;;;;;17.98;13.98;;;;;;;;;;5024628;28;20440;-81
2022/10/17 06:32:51;;;;;;;15.27;13.45;;;;;;;;;;5027700;28;20140;-80
2022/10/17 06:35:17;;;;;;;15.27;13.68;;;;;;;;;;5026561;28;20033;-80
2022/10/17 06:37:43;;;;;;;15.63;13.52;;;;;;;;;;5029354;28;20045;-81
2022/10/17 06:40:11;;;;;;;20.45;14.07;;;;;;;;;;5029028;28;20038;-81
2022/10/17 06:42:37;;;;;;;18.17;14.15;;;;;;;;;;5027208;28;20045;-81
2022/10/17 06:45:03;;;;;;;14.27;12.73;;;;;;;;;;5032100;28;20064;-81
2022/10/17 06:47:29;;;;;;;16.98;13.27;;;;;;;;;;5030852;28;20107;-81
2022/10/17 06:49:55;;;;;;;17.05;13.85;;;;;;;;;;5025191;28;20037;-80
2022/10/17 06:52:21;;;;;;;15.90;13.13;;;;;;;;;;5030378;28;20458;-80
2022/10/17 06:54:47;;;;;;;15.50;13.48;;;;;;;;;;5032324;28;20080;-80
2022/10/17 06:57:13;;;;;;;15.43;13.82;;;;;;;;;;5030730;28;21352;-81
2022/10/17 06:59:40;;;;;;;14.70;12.40;;;;;;;;;;5036730;28;20396;-82
2022/10/17 07:02:09;;;;;;;15.70;13.45;;;;;;;;;;5031953;28;20041;-83
2022/10/17 07:04:35;;;;;;;16.13;13.32;;;;;;;;;;5030653;28;20048;-83
2022/10/17 07:07:02;;;;;;;16.25;12.50;;;;;;;;;;5028968;28;20041;-81
2022/10/17 07:09:28;;;;;;;17.48;13.13;;;;;;;;;;5031245;28;20049;-81
2022/10/17 07:11:57;;;;;;;14.60;13.05;;;;;;;;;;5025983;28;20050;-86
2022/10/17 07:14:30;;;;;;;16.48;13.13;;;;;;;;;;5030187;28;20141;-83
2022/10/17 07:16:57;;;;;;;14.40;12.52;;;;;;;;;;5030170;28;20061;-84
2022/10/17 07:19:23;;;;;;;16.65;12.57;;;;;;;;;;5032318;28;20042;-84
2022/10/17 07:21:49;;;;;;;14.80;12.75;;;;;;;;;;5025735;28;20050;-81
2022/10/17 07:24:15;;;;;;;15.80;12.23;;;;;;;;;;5022351;28;20049;-83
2022/10/17 07:26:41;;;;;;;13.82;11.68;;;;;;;;;;5024722;28;20179;-84
2022/10/17 07:29:07;;;;;;;14.77;12.43;;;;;;;;;;5031320;28;20132;-86
2022/10/17 07:31:33;;;;;;;13.43;11.95;;;;;;;;;;5031119;28;20450;-83
2022/10/17 07:34:00;;;;;;;15.10;11.75;;;;;;;;;;5020181;28;20056;-84
2022/10/17 07:36:28;;;;;;;13.90;11.45;;;;;;;;;;5032436;28;20044;-84
2022/10/17 07:38:54;;;;;;;14.23;12.18;;;;;;;;;;5017569;28;20045;-85
2022/10/17 07:41:20;;;;;;;13.57;11.85;;;;;;;;;;5027054;28;20110;-90
2022/10/17 07:43:46;;;;;;;13.38;11.93;;;;;;;;;;5032089;28;20467;-83
2022/10/17 07:46:15;;;;;;;14.18;12.35;;;;;;;;;;5026717;28;20052;-85
2022/10/17 07:48:41;;;;;;;12.80;11.50;;;;;;;;;;5028140;28;20038;-85
2022/10/17 07:51:08;;;;;;;13.40;11.98;;;;;;;;;;5033509;28;20045;-86
2022/10/17 07:53:43;;;;;;;13.25;11.35;;;;;;;;;;5023371;28;20132;-86
2022/10/17 07:56:09;;;;;;;14.40;12.85;;;;;;;;;;5032929;28;20058;-88
2022/10/17 07:58:36;;;;;;;17.48;11.35;;;;;;;;;;5030543;28;20071;-86
2022/10/17 08:01:05;;;;;;;15.63;12.00;;;;;;;;;;5026229;28;20046;-83
2022/10/17 08:03:32;;;;;;;14.77;11.38;;;;;;;;;;5029589;28;20080;-85
2022/10/17 08:05:58;;;;;;;13.55;11.30;;;;;;;;;;5030767;28;20052;-83
2022/10/17 08:08:24;;;;;;;14.85;11.45;;;;;;;;;;5029413;28;20095;-83
2022/10/17 08:10:51;;;;;;;13.85;11.48;;;;;;;;;;5025609;28;20044;-81
2022/10/17 08:13:17;;;;;;;13.85;11.57;;;;;;;;;;5027826;28;20080;-82
2022/10/17 08:15:43;;;;;;;12.43;10.43;;;;;;;;;;5025192;28;20072;-81
2022/10/17 08:18:09;;;;;;;15.43;11.18;;;;;;;;;;5023735;28;20045;-81
2022/10/17 08:20:36;;;;;;;17.65;11.52;;;;;;;;;;5031421;28;20041;-82
2022/10/17 08:23:02;;;;;;;12.55;10.82;;;;;;;;;;5028929;28;20535;-81
2022/10/17 08:25:28;;;;;;;14.20;11.65;;;;;;;;;;5024378;28;20042;-82
2022/10/17 08:27:54;;;;;;;12.07;10.60;;;;;;;;;;5030915;28;20050;-81
2022/10/17 08:30:20;;;;;;;15.95;10.93;;;;;;;;;;5023469;28;20132;-81
2022/10/17 08:32:46;;;;;;;12.73;10.77;;;;;;;;;;5027963;28;20421;-82
2022/10/17 08:35:13;;;;;;;14.52;10.65;;;;;;;;;;5021381;28;20064;-81
2022/10/17 08:37:39;;;;;;;14.55;11.27;;;;;;;;;;5025732;28;20049;-81
2022/10/17 08:40:06;;;;;;;13.77;11.60;;;;;;;;;;5026460;28;20045;-81
2022/10/17 08:42:44;;;;;;;13.80;11.68;;;;;;;;;;5026976;28;20045;-81
2022/10/17 08:45:21;;;;;;;13.57;11.88;;;;;;;;;;5028492;28;20048;-80
2022/10/17 08:47:49;;;;;;;15.10;10.98;;;;;;;;;;5019792;28;20053;-80
2022/10/17 08:50:23;;;;;;;14.52;11.98;;;;;;;;;;5029733;28;20042;-81
2022/10/17 08:52:59;;;;;;;15.73;10.57;;;;;;;;;;5028325;28;20177;-81
2022/10/17 08:55:42;;;;;;;13.65;11.05;;;;;;;;;;5027676;28;20050;-81
2022/10/17 08:58:16;;;;;;;14.82;11.13;;;;;;;;;;5027812;28;20058;-85
2022/10/17 09:00:49;;;;;;;12.88;11.48;;;;;;;;;;5026257;28;20049;-86
2022/10/17 09:03:15;;;;;;;;;;;;;;;;;;5022555;28;20046;-87
2022/10/17 09:06:01;;;;;;;13.10;11.38;;;;;;;;;;5029474;28;19999;-87
2022/10/17 09:08:35;;;;;;;13.52;11.68;;;;;;;;;;5020881;28;20083;-77
2022/10/17 09:11:14;;;;;;;13.57;12.18;;;;;;;;;;5025839;28;20041;-82
2022/10/17 09:13:44;;;;;;;17.02;12.13;;;;;;;;;;5022813;28;20041;-82
2022/10/17 09:16:22;;;;;;;16.90;11.93;;;;;;;;;;5029205;28;20054;-83
2022/10/17 09:19:11;;;;;;;17.15;12.20;;;;;;;;;;5015841;28;20072;-85
2022/10/17 09:21:53;;;;;;;16.00;12.25;;;;;;;;;;5011873;28;20061;-80
2022/10/17 09:24:39;;;;;;;14.32;12.13;;;;;;;;;;5025034;28;20056;-79
2022/10/17 09:27:10;;;;;;;16.58;12.95;;;;;;;;;;5010933;28;20053;-84
2022/10/17 09:29:37;;;;;;;13.63;12.18;;;;;;;;;;5024717;28;20060;-80
2022/10/17 09:32:08;;;;;;;17.13;12.20;;;;;;;;;;5024537;28;20057;-79
2022/10/17 09:34:34;;;;;;;16.42;12.35;;;;;;;;;;5030142;28;20063;-83
2022/10/17 09:37:01;;;;;;;16.17;12.65;;;;;;;;;;5021075;28;20406;-82
2022/10/17 09:39:31;;;;;;;14.50;12.40;;;;;;;;;;5024476;28;20133;-81
2022/10/17 09:41:59;;;;;;;20.80;13.02;;;;;;;;;;5023252;28;20061;-81
2022/10/17 09:44:35;;;;;;;20.20;13.38;;;;;;;;;;5028153;28;20088;-83
2022/10/17 09:47:20;;;;;;;20.63;12.52;;;;;;;;;;5043401;28;20065;-83
2022/10/17 09:49:47;;;;;;;18.38;13.07;;;;;;;;;;5027111;28;20493;-90
2022/10/17 09:52:21;;;;;;;15.50;12.50;;;;;;;;;;5012554;28;20536;-89
2022/10/17 09:54:48;;;;;;;15.65;12.80;;;;;;;;;;5020822;28;20401;-81
2022/10/17 09:57:15;;;;;;;18.08;13.18;;;;;;;;;;5027945;28;20605;-84
2022/10/17 09:59:43;;;;;;;16.35;13.05;;;;;;;;;;5027511;28;20055;-86
2022/10/17 10:02:13;;;;;;;19.23;12.68;;;;;;;;;;5026037;28;20044;-85
2022/10/17 10:04:51;;;;;;;16.10;12.35;;;;;;;;;;5023425;28;20049;-82
2022/10/17 10:07:19;;;;;;;16.63;12.57;;;;;;;;;;5021983;28;20056;-81
2022/10/17 10:09:46;;;;;;;14.82;13.30;;;;;;;;;;5019643;28;20038;-82
2022/10/17 10:12:32;;;;;;;16.27;13.25;;;;;;;;;;5025784;28;20034;-81
2022/10/17 10:14:58;;;;;;;18.30;12.90;;;;;;;;;;5033019;28;20132;-81
2022/10/17 10:17:33;;;;;;;17.77;13.50;;;;;;;;;;5030629;28;20057;-81
2022/10/17 10:20:00;;;;;;;16.23;12.88;;;;;;;;;;5030971;28;20053;-81
2022/10/17 10:22:29;;;;;;;20.55;13.65;;;;;;;;;;5028586;28;20163;-79
2022/10/17 10:25:10;;;;;;;17.88;13.88;;;;;;;;;;5032060;28;20042;-82
2022/10/17 10:27:36;;;;;;;14.82;11.75;;;;;;;;;;5030410;28;20075;-82
2022/10/17 10:30:04;;;;;;;14.60;12.13;;;;;;;;;;5031630;28;20052;-82
2022/10/17 10:32:31;;;;;;;17.92;12.30;;;;;;;;;;5025824;28;20048;-83
2022/10/17 10:35:00;;;;;;;15.05;12.50;;;;;;;;;;5031981;28;20062;-83
2022/10/17 10:37:28;;;;;;;14.15;12.05;;;;;;;;;;5025137;28;20073;-83
2022/10/17 10:40:05;;;;;;;15.25;12.25;;;;;;;;;;5031967;28;20052;-79
2022/10/17 10:42:33;;;;;;;19.48;13.18;;;;;;;;;;5027563;28;20053;-79
2022/10/17 10:45:04;;;;;;;21.20;12.98;;;;;;;;;;5029940;28;20041;-79
2022/10/17 10:47:31;;;;;;;19.40;12.38;;;;;;;;;;5028107;28;20483;-79
2022/10/17 10:50:15;;;;;;;18.73;12.57;;;;;;;;;;5025570;28;20056;-79
2022/10/17 10:53:02;;;;;;;15.27;11.70;;;;;;;;;;5033788;28;20392;-79
2022/10/17 10:55:31;;;;;;;17.00;12.30;;;;;;;;;;4989959;28;20587;-79
2022/10/17 10:58:01;;;;;;;13.95;11.40;;;;;;;;;;5025785;28;20099;-79
2022/10/17 11:00:28;;;;;;;13.75;12.07;;;;;;;;;;5025827;28;20060;-79
2022/10/17 11:02:59;;;;;;;12.73;10.93;;;;;;;;;;5029670;28;20049;-79
2022/10/17 11:05:25;;;;;;;12.60;11.02;;;;;;;;;;5030050;28;20055;-79
2022/10/17 11:07:56;;;;;;;12.10;10.73;;;;;;;;;;5022612;28;20485;-79
2022/10/17 11:10:37;;;;;;;12.75;10.65;;;;;;;;;;5027924;28;20038;-80
2022/10/17 11:13:21;;;;;;;16.00;11.10;;;;;;;;;;5030115;28;20053;-80
2022/10/17 11:16:06;;;;;;;11.98;10.45;;;;;;;;;;5026257;28;20176;-79
2022/10/17 11:18:41;;;;;;;12.15;9.35;;;;;;;;;;5025643;28;20064;-80
2022/10/17 11:21:27;;;;;;;11.43;9.63;;;;;;;;;;5027287;28;20041;-80
2022/10/17 11:24:00;;;;;;;14.00;9.20;;;;;;;;;;5025066;28;20045;-79
2022/10/17 11:26:27;;;;;;;15.50;9.30;;;;;;;;;;5028961;28;20103;-80
2022/10/17 11:28:54;;;;;;;13.23;9.40;;;;;;;;;;5029454;28;20405;-80
2022/10/17 11:31:20;;;;;;;10.55;8.65;;;;;;;;;;5028453;28;20064;-79
2022/10/17 11:33:53;;;;;;;10.93;9.25;;;;;;;;;;5031179;28;20473;-80
2022/10/17 11:36:21;;;;;;;10.60;8.73;;;;;;;;;;5029451;28;20044;-80
2022/10/17 11:38:52;;;;;;;10.65;7.82;;;;;;;;;;5026523;28;20456;-80
2022/10/17 11:41:20;;;;;;;12.52;8.57;;;;;;;;;;5028521;28;20048;-80
2022/10/17 11:43:49;;;;;;;18.00;9.68;;;;;;;;;;5022548;28;20072;-80
2022/10/17 11:46:22;;;;;;;11.63;8.60;;;;;;;;;;5026094;28;20481;-80
2022/10/17 11:49:18;;;;;;;8.95;8.00;;;;;;;;;;5023590;28;20048;-80
2022/10/17 11:51:46;;;;;;;12.38;8.38;;;;;;;;;;5010520;28;20053;-80
2022/10/17 11:54:21;;;;;;;12.73;8.07;;;;;;;;;;5024757;28;20033;-79
2022/10/17 11:57:03;;;;;;;11.00;7.57;;;;;;;;;;5016973;28;20041;-81
2022/10/17 11:59:35;;;;;;;10.93;7.88;;;;;;;;;;5026217;28;20053;-83
2022/10/17 12:02:04;;;;;;;11.95;8.48;;;;;;;;;;5030997;28;20485;-81
2022/10/17 12:04:45;;;;;;;10.90;8.02;;;;;;;;;;5028155;28;20049;-80
2022/10/17 12:07:11;;;;;;;11.88;7.63;;;;;;;;;;5027064;28;20053;-80
2022/10/17 12:09:44;;;;;;;10.73;7.28;;;;;;;;;;5028432;28;20483;-81
2022/10/17 12:12:23;;;;;;;9.25;6.72;;;;;;;;;;5029118;28;20077;-81
2022/10/17 12:14:49;;;;;;;12.68;6.40;;;;;;;;;;5027636;28;20038;-80
2022/10/17 12:17:38;;;;;;;12.18;6.40;;;;;;;;;;5028544;28;20045;-80
2022/10/17 12:20:22;;;;;;;9.15;6.43;;;;;;;;;;5030149;28;20072;-81
2022/10/17 12:22:53;;;;;;;12.88;6.40;;;;;;;;;;5024009;28;20045;-81
2022/10/17 12:25:32;;;;;;;12.43;6.03;;;;;;;;;;5029926;28;20037;-80
2022/10/17 12:28:04;;;;;;;9.10;6.13;;;;;;;;;;5030296;28;20060;-81
2022/10/17 12:30:30;;;;;;;11.48;5.90;;;;;;;;;;5023250;28;20072;-81
2022/10/17 12:32:56;;;;;;;8.18;5.10;;;;;;;;;;5030175;28;20056;-80
2022/10/17 12:35:23;;;;;;;11.07;5.32;;;;;;;;;;5026092;28;20037;-81
2022/10/17 12:37:49;;;;;;;8.20;4.57;;;;;;;;;;5029673;28;20140;-81
2022/10/17 12:40:33;;;;;;;9.52;5.00;;;;;;;;;;5027600;28;20156;-80
2022/10/17 12:43:00;;;;;;;9.05;4.90;;;;;;;;;;5007039;28;20136;-81
2022/10/17 12:45:44;;;;;;;5.43;4.53;;;;;;;;;;5025245;28;20049;-81
2022/10/17 12:48:10;;;;;;;;;;;;;;;;;;5028794;28;20481;-80
2022/10/17 12:50:54;;;;;;;8.30;4.35;;;;;;;;;;5028749;28;19928;-81
2022/10/17 12:53:26;;;;;;;7.75;4.47;;;;;;;;;;5028225;28;20171;-80
2022/10/17 12:55:59;;;;;;;6.70;4.13;;;;;;;;;;5026077;28;20077;-80
2022/10/17 12:58:25;;;;;;;8.70;4.55;;;;;;;;;;5027947;28;20115;-79
2022/10/17 13:00:53;;;;;;;6.72;3.95;;;;;;;;;;5028256;28;20056;-80
2022/10/17 13:03:31;;;;;;;6.25;4.13;;;;;;;;;;5027686;28;20408;-80
2022/10/17 13:05:59;;;;;;;6.93;3.70;;;;;;;;;;5021414;28;20124;-80
2022/10/17 13:08:28;;;;;;;7.20;4.20;;;;;;;;;;5026202;28;20049;-80
2022/10/17 13:10:55;;;;;;;11.30;4.40;;;;;;;;;;5028167;28;20128;-80
2022/10/17 13:13:41;;;;;;;10.10;4.60;;;;;;;;;;5024028;28;20056;-80
2022/10/17 13:16:08;;;;;;;10.60;4.45;;;;;;;;;;5012720;28;20085;-80
2022/10/17 13:18:34;;;;;;;5.68;4.15;;;;;;;;;;5027914;28;20053;-80
2022/10/17 13:21:01;;;;;;;10.77;5.10;;;;;;;;;;5028346;28;20052;-80
2022/10/17 13:23:32;;;;;;;7.75;4.57;;;;;;;;;;5027642;28;20072;-80
2022/10/17 13:26:03;;;;;;;5.97;4.45;;;;;;;;;;5028797;28;20099;-80
2022/10/17 13:28:29;;;;;;;8.75;4.82;;;;;;;;;;5028129;28;20050;-81
2022/10/17 13:30:55;;;;;;;7.53;4.20;;;;;;;;;;5025722;28;20103;-80
2022/10/17 13:33:32;;;;;;;8.40;4.43;;;;;;;;;;5026524;28;20444;-80
2022/10/17 13:35:59;;;;;;;10.77;4.70;;;;;;;;;;5028780;28;20053;-80
2022/10/17 13:38:31;;;;;;;8.20;4.50;;;;;;;;;;5026348;28;20086;-80
2022/10/17 13:40:57;;;;;;;8.55;4.85;;;;;;;;;;5029209;28;20054;-80
2022/10/17 13:43:23;;;;;;;8.40;4.57;;;;;;;;;;5026945;28;20037;-80
2022/10/17 13:45:54;;;;;;;11.05;5.00;;;;;;;;;;5027166;28;20046;-80
2022/10/17 13:48:22;;;;;;;6.95;4.53;;;;;;;;;;5027197;28;20057;-80
2022/10/17 13:50:50;;;;;;;9.75;4.72;;;;;;;;;;5029911;28;20044;-80
2022/10/17 13:53:18;;;;;;;7.47;4.53;;;;;;;;;;5029088;28;20041;-80
2022/10/17 13:55:54;;;;;;;6.47;4.40;;;;;;;;;;5029605;28;20045;-81
2022/10/17 13:58:20;;;;;;;7.53;4.45;;;;;;;;;;5027398;28;20057;-80
2022/10/17 14:00:49;;;;;;;7.88;4.13;;;;;;;;;;5023790;28;20081;-79
2022/10/17 14:03:15;;;;;;;8.73;4.50;;;;;;;;;;5025604;28;20049;-80
2022/10/17 14:06:00;;;;;;;7.50;4.40;;;;;;;;;;5023616;28;20493;-82
2022/10/17 14:08:26;;;;;;;7.43;4.10;;;;;;;;;;5029350;28;20037;-84
2022/10/17 14:10:52;;;;;;;6.85;4.05;;;;;;;;;;5016676;28;20045;-89
2022/10/17 14:13:35;;;;;;;6.35;3.80;;;;;;;;;;5011639;28;20065;-85
2022/10/17 14:16:02;;;;;;;8.27;3.75;;;;;;;;;;5018816;28;20125;-85
2022/10/17 14:18:30;;;;;;;7.45;3.83;;;;;;;;;;5023163;28;20204;-79
2022/10/17 14:20:56;;;;;;;6.78;3.95;;;;;;;;;;5018705;28;20049;-79
2022/10/17 14:23:31;;;;;;;7.97;3.63;;;;;;;;;;5025480;28;20045;-80
2022/10/17 14:26:05;;;;;;;6.93;3.85;;;;;;;;;;5024732;28;20081;-82
2022/10/17 14:28:31;;;;;;;8.63;3.60;;;;;;;;;;5021716;28;20077;-82
2022/10/17 14:31:08;;;;;;;8.68;4.07;;;;;;;;;;5021236;28;20048;-82
2022/10/17 14:33:35;;;;;;;6.25;3.38;;;;;;;;;;5023502;28;20114;-79
2022/10/17 14:36:02;;;;;;;6.78;3.42;;;;;;;;;;5028784;28;20045;-80
2022/10/17 14:38:29;;;;;;;5.90;3.13;;;;;;;;;;5025432;28;20892;-81